Spicewood, Texas
Current Conditions -  °F | °C
As of 7:15 AM on Thursday 27 Nov 2014 (Local Time) from KRYW Reporting Station
Clear Clear  
Wind Chill: 36°   Ceiling: Unl
Heat Index: 43°   Visibility: 10mi
Dew Point: 33°   Wind: 14mph
Humidity: 67%   Direction: 30°NNE
Pressure: 30.47"   Gusts: 20mph
Location:  30.48°N, 98.16°W
Report Text: KRYW 271315Z AUTO 03012G17KT 10SM CLR 06/01 A3047 RMK AO2 T00630005
Loading
Personal Weather Stations






























Interactive Weather Map New forecast layout! Learn more

10-Day Weather Forecast

Advertisements
Track Severe Weather on mobile